sensor_id;sensor_type;location;lat;lon;timestamp;P1;durP1;ratioP1;P2;durP2;ratioP2
51836;SDS011;38941;53.254;6.600;2024-01-30T00:01:47;18.40;;;10.48;;
51836;SDS011;38941;53.254;6.600;2024-01-30T00:03:48;22.60;;;11.63;;
51836;SDS011;38941;53.254;6.600;2024-01-30T00:05:51;19.80;;;10.75;;
51836;SDS011;38941;53.254;6.600;2024-01-30T00:07:52;21.45;;;11.13;;
51836;SDS011;38941;53.254;6.600;2024-01-30T00:09:54;20.38;;;11.40;;
51836;SDS011;38941;53.254;6.600;2024-01-30T00:11:56;21.48;;;11.68;;
51836;SDS011;38941;53.254;6.600;2024-01-30T00:13:58;25.52;;;11.60;;
51836;SDS011;38941;53.254;6.600;2024-01-30T00:15:59;17.38;;;10.60;;
51836;SDS011;38941;53.254;6.600;2024-01-30T00:18:00;19.77;;;11.13;;
51836;SDS011;38941;53.254;6.600;2024-01-30T00:20:02;21.48;;;11.68;;
51836;SDS011;38941;53.254;6.600;2024-01-30T00:22:09;21.20;;;10.57;;
51836;SDS011;38941;53.254;6.600;2024-01-30T00:24:10;21.98;;;11.43;;
51836;SDS011;38941;53.254;6.600;2024-01-30T00:26:11;22.00;;;12.02;;
51836;SDS011;38941;53.254;6.600;2024-01-30T00:28:12;21.45;;;11.93;;
51836;SDS011;38941;53.254;6.600;2024-01-30T00:30:13;25.40;;;12.13;;
51836;SDS011;38941;53.254;6.600;2024-01-30T00:32:14;23.25;;;10.82;;
51836;SDS011;38941;53.254;6.600;2024-01-30T00:34:15;24.33;;;11.40;;
51836;SDS011;38941;53.254;6.600;2024-01-30T00:36:17;19.73;;;11.20;;
51836;SDS011;38941;53.254;6.600;2024-01-30T00:38:19;19.90;;;11.50;;
51836;SDS011;38941;53.254;6.600;2024-01-30T00:40:21;23.38;;;11.38;;
51836;SDS011;38941;53.254;6.600;2024-01-30T00:42:23;21.23;;;11.52;;
51836;SDS011;38941;53.254;6.600;2024-01-30T00:44:25;20.40;;;10.90;;
51836;SDS011;38941;53.254;6.600;2024-01-30T00:46:26;20.75;;;11.10;;
51836;SDS011;38941;53.254;6.600;2024-01-30T00:48:27;23.33;;;11.52;;
51836;SDS011;38941;53.254;6.600;2024-01-30T00:50:28;22.17;;;11.77;;
51836;SDS011;38941;53.254;6.600;2024-01-30T00:52:30;20.65;;;11.10;;
51836;SDS011;38941;53.254;6.600;2024-01-30T00:54:33;22.58;;;12.65;;
51836;SDS011;38941;53.254;6.600;2024-01-30T00:56:34;18.88;;;11.80;;
51836;SDS011;38941;53.254;6.600;2024-01-30T00:58:35;22.02;;;12.10;;
51836;SDS011;38941;53.254;6.600;2024-01-30T01:00:36;19.55;;;12.10;;
51836;SDS011;38941;53.254;6.600;2024-01-30T01:02:38;23.02;;;11.55;;
51836;SDS011;38941;53.254;6.600;2024-01-30T01:04:39;23.10;;;13.02;;
51836;SDS011;38941;53.254;6.600;2024-01-30T01:06:40;20.13;;;12.10;;
51836;SDS011;38941;53.254;6.600;2024-01-30T01:08:44;22.80;;;12.32;;
51836;SDS011;38941;53.254;6.600;2024-01-30T01:10:45;26.88;;;12.23;;
51836;SDS011;38941;53.254;6.600;2024-01-30T01:12:46;21.77;;;11.93;;
51836;SDS011;38941;53.254;6.600;2024-01-30T01:14:47;22.00;;;12.43;;
51836;SDS011;38941;53.254;6.600;2024-01-30T01:16:48;22.92;;;12.63;;
51836;SDS011;38941;53.254;6.600;2024-01-30T01:18:49;23.10;;;12.00;;
51836;SDS011;38941;53.254;6.600;2024-01-30T01:20:50;21.80;;;12.13;;
51836;SDS011;38941;53.254;6.600;2024-01-30T01:22:52;21.60;;;12.00;;
51836;SDS011;38941;53.254;6.600;2024-01-30T01:24:55;26.13;;;12.60;;
51836;SDS011;38941;53.254;6.600;2024-01-30T01:26:56;24.83;;;12.38;;
51836;SDS011;38941;53.254;6.600;2024-01-30T01:28:57;22.30;;;12.25;;
51836;SDS011;38941;53.254;6.600;2024-01-30T01:30:59;22.98;;;11.68;;
51836;SDS011;38941;53.254;6.600;2024-01-30T01:33:05;24.83;;;11.55;;
51836;SDS011;38941;53.254;6.600;2024-01-30T01:35:06;27.50;;;12.10;;
51836;SDS011;38941;53.254;6.600;2024-01-30T01:37:07;28.13;;;13.13;;
51836;SDS011;38941;53.254;6.600;2024-01-30T01:39:09;21.52;;;12.07;;
51836;SDS011;38941;53.254;6.600;2024-01-30T01:41:10;22.00;;;12.95;;
51836;SDS011;38941;53.254;6.600;2024-01-30T01:43:11;25.15;;;12.75;;
51836;SDS011;38941;53.254;6.600;2024-01-30T01:45:12;22.52;;;11.60;;
51836;SDS011;38941;53.254;6.600;2024-01-30T01:47:14;27.42;;;13.60;;
51836;SDS011;38941;53.254;6.600;2024-01-30T01:49:16;22.75;;;12.43;;
51836;SDS011;38941;53.254;6.600;2024-01-30T01:51:17;23.40;;;12.43;;
51836;SDS011;38941;53.254;6.600;2024-01-30T01:53:18;22.70;;;12.02;;
51836;SDS011;38941;53.254;6.600;2024-01-30T01:55:19;22.10;;;12.80;;
51836;SDS011;38941;53.254;6.600;2024-01-30T01:57:22;25.55;;;12.60;;
51836;SDS011;38941;53.254;6.600;2024-01-30T01:59:23;23.83;;;11.27;;
51836;SDS011;38941;53.254;6.600;2024-01-30T02:01:24;22.83;;;12.77;;
51836;SDS011;38941;53.254;6.600;2024-01-30T02:03:26;21.00;;;11.70;;
51836;SDS011;38941;53.254;6.600;2024-01-30T02:05:28;24.77;;;12.30;;
51836;SDS011;38941;53.254;6.600;2024-01-30T02:07:30;21.25;;;11.27;;
51836;SDS011;38941;53.254;6.600;2024-01-30T02:09:32;19.50;;;11.35;;
51836;SDS011;38941;53.254;6.600;2024-01-30T02:11:33;21.83;;;11.88;;
51836;SDS011;38941;53.254;6.600;2024-01-30T02:13:34;20.77;;;11.77;;
51836;SDS011;38941;53.254;6.600;2024-01-30T02:15:35;26.27;;;13.18;;
51836;SDS011;38941;53.254;6.600;2024-01-30T02:17:36;22.85;;;13.10;;
51836;SDS011;38941;53.254;6.600;2024-01-30T02:19:37;29.33;;;12.13;;
51836;SDS011;38941;53.254;6.600;2024-01-30T02:21:38;24.23;;;12.00;;
51836;SDS011;38941;53.254;6.600;2024-01-30T02:23:40;22.77;;;12.80;;
51836;SDS011;38941;53.254;6.600;2024-01-30T02:25:42;25.50;;;12.13;;
51836;SDS011;38941;53.254;6.600;2024-01-30T02:27:48;20.95;;;12.10;;
51836;SDS011;38941;53.254;6.600;2024-01-30T02:29:49;23.95;;;12.43;;
51836;SDS011;38941;53.254;6.600;2024-01-30T02:31:50;23.50;;;12.52;;
51836;SDS011;38941;53.254;6.600;2024-01-30T02:33:53;24.70;;;12.73;;
51836;SDS011;38941;53.254;6.600;2024-01-30T02:35:54;25.60;;;12.68;;
51836;SDS011;38941;53.254;6.600;2024-01-30T02:37:56;20.88;;;11.82;;
51836;SDS011;38941;53.254;6.600;2024-01-30T02:39:58;24.30;;;12.57;;
51836;SDS011;38941;53.254;6.600;2024-01-30T02:41:59;23.33;;;12.02;;
51836;SDS011;38941;53.254;6.600;2024-01-30T02:44:00;19.60;;;11.38;;
51836;SDS011;38941;53.254;6.600;2024-01-30T02:46:01;18.98;;;11.95;;
51836;SDS011;38941;53.254;6.600;2024-01-30T02:48:03;20.08;;;10.68;;
51836;SDS011;38941;53.254;6.600;2024-01-30T02:50:04;19.88;;;11.77;;
51836;SDS011;38941;53.254;6.600;2024-01-30T02:52:05;20.85;;;10.90;;
51836;SDS011;38941;53.254;6.600;2024-01-30T02:54:06;20.98;;;11.65;;
51836;SDS011;38941;53.254;6.600;2024-01-30T02:56:07;24.38;;;11.93;;
51836;SDS011;38941;53.254;6.600;2024-01-30T02:58:09;21.58;;;11.85;;
51836;SDS011;38941;53.254;6.600;2024-01-30T03:00:11;22.90;;;11.88;;
51836;SDS011;38941;53.254;6.600;2024-01-30T03:02:12;21.63;;;11.13;;
51836;SDS011;38941;53.254;6.600;2024-01-30T03:04:13;21.92;;;11.23;;
51836;SDS011;38941;53.254;6.600;2024-01-30T03:06:14;21.35;;;11.50;;
51836;SDS011;38941;53.254;6.600;2024-01-30T03:08:17;25.42;;;12.82;;
51836;SDS011;38941;53.254;6.600;2024-01-30T03:10:19;24.67;;;12.68;;
51836;SDS011;38941;53.254;6.600;2024-01-30T03:12:21;24.65;;;11.20;;
51836;SDS011;38941;53.254;6.600;2024-01-30T03:14:22;20.42;;;11.65;;
51836;SDS011;38941;53.254;6.600;2024-01-30T03:16:23;17.50;;;10.82;;
51836;SDS011;38941;53.254;6.600;2024-01-30T03:18:25;18.92;;;11.32;;
51836;SDS011;38941;53.254;6.600;2024-01-30T03:20:26;26.38;;;11.15;;
51836;SDS011;38941;53.254;6.600;2024-01-30T03:22:27;22.48;;;11.25;;
51836;SDS011;38941;53.254;6.600;2024-01-30T03:24:28;20.80;;;10.90;;
51836;SDS011;38941;53.254;6.600;2024-01-30T03:26:29;20.55;;;11.43;;
51836;SDS011;38941;53.254;6.600;2024-01-30T03:28:30;21.35;;;10.52;;
51836;SDS011;38941;53.254;6.600;2024-01-30T03:30:34;22.63;;;10.27;;
51836;SDS011;38941;53.254;6.600;2024-01-30T03:32:36;22.85;;;11.27;;
51836;SDS011;38941;53.254;6.600;2024-01-30T03:34:37;20.23;;;10.45;;
51836;SDS011;38941;53.254;6.600;2024-01-30T03:36:38;19.30;;;9.98;;
51836;SDS011;38941;53.254;6.600;2024-01-30T03:38:40;20.65;;;10.63;;
51836;SDS011;38941;53.254;6.600;2024-01-30T03:40:42;18.88;;;10.85;;
51836;SDS011;38941;53.254;6.600;2024-01-30T03:42:43;20.65;;;10.32;;
51836;SDS011;38941;53.254;6.600;2024-01-30T03:44:44;20.25;;;10.50;;
51836;SDS011;38941;53.254;6.600;2024-01-30T03:46:45;22.55;;;10.63;;
51836;SDS011;38941;53.254;6.600;2024-01-30T03:48:46;21.80;;;11.10;;
51836;SDS011;38941;53.254;6.600;2024-01-30T03:50:48;19.05;;;10.65;;
51836;SDS011;38941;53.254;6.600;2024-01-30T03:52:51;19.20;;;10.35;;
51836;SDS011;38941;53.254;6.600;2024-01-30T03:54:52;24.25;;;11.05;;
51836;SDS011;38941;53.254;6.600;2024-01-30T03:56:53;23.65;;;11.75;;
51836;SDS011;38941;53.254;6.600;2024-01-30T03:58:54;18.05;;;9.73;;
51836;SDS011;38941;53.254;6.600;2024-01-30T04:00:56;20.50;;;11.25;;
51836;SDS011;38941;53.254;6.600;2024-01-30T04:02:57;20.65;;;11.15;;
51836;SDS011;38941;53.254;6.600;2024-01-30T04:04:58;20.75;;;11.25;;
51836;SDS011;38941;53.254;6.600;2024-01-30T04:06:59;21.58;;;10.95;;
51836;SDS011;38941;53.254;6.600;2024-01-30T04:09:00;22.63;;;10.63;;
51836;SDS011;38941;53.254;6.600;2024-01-30T04:11:05;20.98;;;10.80;;
51836;SDS011;38941;53.254;6.600;2024-01-30T04:13:06;19.77;;;11.10;;
51836;SDS011;38941;53.254;6.600;2024-01-30T04:15:07;18.73;;;10.30;;
51836;SDS011;38941;53.254;6.600;2024-01-30T04:17:08;21.77;;;10.57;;
51836;SDS011;38941;53.254;6.600;2024-01-30T04:19:09;17.70;;;10.68;;
51836;SDS011;38941;53.254;6.600;2024-01-30T04:21:10;24.73;;;11.05;;
51836;SDS011;38941;53.254;6.600;2024-01-30T04:23:12;20.45;;;10.32;;
51836;SDS011;38941;53.254;6.600;2024-01-30T04:25:13;16.45;;;10.43;;
51836;SDS011;38941;53.254;6.600;2024-01-30T04:27:15;23.50;;;10.38;;
51836;SDS011;38941;53.254;6.600;2024-01-30T04:29:16;18.98;;;10.93;;
51836;SDS011;38941;53.254;6.600;2024-01-30T04:31:18;22.48;;;10.57;;
51836;SDS011;38941;53.254;6.600;2024-01-30T04:33:19;17.23;;;9.75;;
51836;SDS011;38941;53.254;6.600;2024-01-30T04:35:20;17.63;;;10.10;;
51836;SDS011;38941;53.254;6.600;2024-01-30T04:37:25;20.90;;;9.98;;
51836;SDS011;38941;53.254;6.600;2024-01-30T04:39:26;16.23;;;10.00;;
51836;SDS011;38941;53.254;6.600;2024-01-30T04:41:28;14.77;;;9.38;;
51836;SDS011;38941;53.254;6.600;2024-01-30T04:43:31;21.38;;;9.82;;
51836;SDS011;38941;53.254;6.600;2024-01-30T04:45:33;16.95;;;9.98;;
51836;SDS011;38941;53.254;6.600;2024-01-30T04:47:34;18.83;;;10.35;;
51836;SDS011;38941;53.254;6.600;2024-01-30T04:49:36;17.90;;;9.80;;
51836;SDS011;38941;53.254;6.600;2024-01-30T04:51:37;15.35;;;9.13;;
51836;SDS011;38941;53.254;6.600;2024-01-30T04:53:38;19.02;;;9.57;;
51836;SDS011;38941;53.254;6.600;2024-01-30T04:55:39;15.95;;;7.80;;
51836;SDS011;38941;53.254;6.600;2024-01-30T04:57:40;15.88;;;9.02;;
51836;SDS011;38941;53.254;6.600;2024-01-30T04:59:41;19.00;;;9.60;;
51836;SDS011;38941;53.254;6.600;2024-01-30T05:01:42;17.77;;;9.48;;
51836;SDS011;38941;53.254;6.600;2024-01-30T05:03:44;17.23;;;9.27;;
51836;SDS011;38941;53.254;6.600;2024-01-30T05:05:45;17.30;;;9.05;;
51836;SDS011;38941;53.254;6.600;2024-01-30T05:07:46;15.80;;;8.82;;
51836;SDS011;38941;53.254;6.600;2024-01-30T05:09:47;13.52;;;7.68;;
51836;SDS011;38941;53.254;6.600;2024-01-30T05:11:48;17.25;;;8.18;;
51836;SDS011;38941;53.254;6.600;2024-01-30T05:13:49;18.17;;;8.35;;
51836;SDS011;38941;53.254;6.600;2024-01-30T05:15:50;15.00;;;8.93;;
51836;SDS011;38941;53.254;6.600;2024-01-30T05:17:51;19.73;;;8.02;;
51836;SDS011;38941;53.254;6.600;2024-01-30T05:19:53;15.05;;;8.23;;
51836;SDS011;38941;53.254;6.600;2024-01-30T05:21:54;13.43;;;8.45;;
51836;SDS011;38941;53.254;6.600;2024-01-30T05:23:55;13.48;;;8.10;;
51836;SDS011;38941;53.254;6.600;2024-01-30T05:25:56;16.33;;;8.60;;
51836;SDS011;38941;53.254;6.600;2024-01-30T05:27:57;17.40;;;8.65;;
51836;SDS011;38941;53.254;6.600;2024-01-30T05:29:58;15.80;;;8.88;;
51836;SDS011;38941;53.254;6.600;2024-01-30T05:31:59;14.40;;;8.52;;
51836;SDS011;38941;53.254;6.600;2024-01-30T05:34:01;17.10;;;8.00;;
51836;SDS011;38941;53.254;6.600;2024-01-30T05:36:03;17.00;;;9.13;;
51836;SDS011;38941;53.254;6.600;2024-01-30T05:38:04;14.18;;;8.18;;
51836;SDS011;38941;53.254;6.600;2024-01-30T05:40:05;17.05;;;8.63;;
51836;SDS011;38941;53.254;6.600;2024-01-30T05:42:06;13.60;;;8.10;;
51836;SDS011;38941;53.254;6.600;2024-01-30T05:44:08;18.70;;;8.85;;
51836;SDS011;38941;53.254;6.600;2024-01-30T05:46:09;14.75;;;8.23;;
51836;SDS011;38941;53.254;6.600;2024-01-30T05:48:10;14.73;;;8.38;;
51836;SDS011;38941;53.254;6.600;2024-01-30T05:50:11;15.68;;;8.85;;
51836;SDS011;38941;53.254;6.600;2024-01-30T05:52:12;19.50;;;7.88;;
51836;SDS011;38941;53.254;6.600;2024-01-30T05:54:16;12.50;;;7.88;;
51836;SDS011;38941;53.254;6.600;2024-01-30T05:56:17;14.95;;;8.63;;
51836;SDS011;38941;53.254;6.600;2024-01-30T05:58:18;16.95;;;8.98;;
51836;SDS011;38941;53.254;6.600;2024-01-30T06:00:19;18.17;;;8.00;;
51836;SDS011;38941;53.254;6.600;2024-01-30T06:02:20;17.58;;;8.88;;
51836;SDS011;38941;53.254;6.600;2024-01-30T06:04:21;15.77;;;8.95;;
51836;SDS011;38941;53.254;6.600;2024-01-30T06:06:22;15.68;;;8.02;;
51836;SDS011;38941;53.254;6.600;2024-01-30T06:08:23;16.75;;;8.25;;
51836;SDS011;38941;53.254;6.600;2024-01-30T06:10:25;15.25;;;8.38;;
51836;SDS011;38941;53.254;6.600;2024-01-30T06:12:27;19.25;;;7.95;;
51836;SDS011;38941;53.254;6.600;2024-01-30T06:14:28;17.08;;;9.68;;
51836;SDS011;38941;53.254;6.600;2024-01-30T06:16:29;16.40;;;9.13;;
51836;SDS011;38941;53.254;6.600;2024-01-30T06:18:30;18.75;;;9.13;;
51836;SDS011;38941;53.254;6.600;2024-01-30T06:20:31;19.17;;;8.68;;
51836;SDS011;38941;53.254;6.600;2024-01-30T06:22:32;17.08;;;7.85;;
51836;SDS011;38941;53.254;6.600;2024-01-30T06:24:33;18.80;;;9.00;;
51836;SDS011;38941;53.254;6.600;2024-01-30T06:26:35;14.55;;;7.15;;
51836;SDS011;38941;53.254;6.600;2024-01-30T06:28:36;15.93;;;8.63;;
51836;SDS011;38941;53.254;6.600;2024-01-30T06:30:37;14.60;;;7.22;;
51836;SDS011;38941;53.254;6.600;2024-01-30T06:32:38;16.27;;;8.43;;
51836;SDS011;38941;53.254;6.600;2024-01-30T06:34:40;15.20;;;8.15;;
51836;SDS011;38941;53.254;6.600;2024-01-30T06:36:42;14.05;;;7.70;;
51836;SDS011;38941;53.254;6.600;2024-01-30T06:38:44;15.50;;;8.05;;
51836;SDS011;38941;53.254;6.600;2024-01-30T06:40:45;16.45;;;8.00;;
51836;SDS011;38941;53.254;6.600;2024-01-30T06:42:46;12.45;;;7.25;;
51836;SDS011;38941;53.254;6.600;2024-01-30T06:44:47;15.38;;;8.25;;
51836;SDS011;38941;53.254;6.600;2024-01-30T06:46:48;13.05;;;7.15;;
51836;SDS011;38941;53.254;6.600;2024-01-30T06:48:49;15.27;;;8.00;;
51836;SDS011;38941;53.254;6.600;2024-01-30T06:50:53;13.88;;;7.95;;
51836;SDS011;38941;53.254;6.600;2024-01-30T06:52:54;14.23;;;8.40;;
51836;SDS011;38941;53.254;6.600;2024-01-30T06:54:55;15.30;;;8.45;;
51836;SDS011;38941;53.254;6.600;2024-01-30T06:56:56;15.07;;;7.88;;
51836;SDS011;38941;53.254;6.600;2024-01-30T06:58:58;14.77;;;8.10;;
51836;SDS011;38941;53.254;6.600;2024-01-30T07:00:59;15.65;;;7.53;;
51836;SDS011;38941;53.254;6.600;2024-01-30T07:03:00;19.02;;;7.63;;
51836;SDS011;38941;53.254;6.600;2024-01-30T07:05:02;18.08;;;7.63;;
51836;SDS011;38941;53.254;6.600;2024-01-30T07:07:03;14.00;;;7.47;;
51836;SDS011;38941;53.254;6.600;2024-01-30T07:09:05;15.98;;;7.90;;
51836;SDS011;38941;53.254;6.600;2024-01-30T07:11:06;14.20;;;7.80;;
51836;SDS011;38941;53.254;6.600;2024-01-30T07:13:07;16.67;;;7.38;;
51836;SDS011;38941;53.254;6.600;2024-01-30T07:15:10;14.95;;;7.93;;
51836;SDS011;38941;53.254;6.600;2024-01-30T07:17:11;15.85;;;6.70;;
51836;SDS011;38941;53.254;6.600;2024-01-30T07:19:12;15.77;;;7.22;;
51836;SDS011;38941;53.254;6.600;2024-01-30T07:21:13;16.27;;;7.88;;
51836;SDS011;38941;53.254;6.600;2024-01-30T07:23:15;14.93;;;7.65;;
51836;SDS011;38941;53.254;6.600;2024-01-30T07:25:17;15.20;;;7.85;;
51836;SDS011;38941;53.254;6.600;2024-01-30T07:27:19;12.90;;;7.60;;
51836;SDS011;38941;53.254;6.600;2024-01-30T07:29:21;17.75;;;8.20;;
51836;SDS011;38941;53.254;6.600;2024-01-30T07:31:22;14.18;;;7.90;;
51836;SDS011;38941;53.254;6.600;2024-01-30T07:33:24;12.63;;;7.35;;
51836;SDS011;38941;53.254;6.600;2024-01-30T07:35:25;15.65;;;7.93;;
51836;SDS011;38941;53.254;6.600;2024-01-30T07:37:26;13.32;;;7.22;;
51836;SDS011;38941;53.254;6.600;2024-01-30T07:39:28;13.43;;;8.10;;
51836;SDS011;38941;53.254;6.600;2024-01-30T07:41:29;13.55;;;7.50;;
51836;SDS011;38941;53.254;6.600;2024-01-30T07:43:31;13.60;;;6.88;;
51836;SDS011;38941;53.254;6.600;2024-01-30T07:45:32;14.35;;;8.30;;
51836;SDS011;38941;53.254;6.600;2024-01-30T07:47:33;14.05;;;7.03;;
51836;SDS011;38941;53.254;6.600;2024-01-30T07:49:34;19.95;;;8.10;;
51836;SDS011;38941;53.254;6.600;2024-01-30T07:51:35;13.63;;;7.43;;
51836;SDS011;38941;53.254;6.600;2024-01-30T07:53:36;13.02;;;7.25;;
51836;SDS011;38941;53.254;6.600;2024-01-30T07:55:37;12.85;;;7.38;;
51836;SDS011;38941;53.254;6.600;2024-01-30T07:57:39;17.92;;;7.60;;
51836;SDS011;38941;53.254;6.600;2024-01-30T07:59:43;17.02;;;7.28;;
51836;SDS011;38941;53.254;6.600;2024-01-30T08:01:44;18.20;;;7.82;;
51836;SDS011;38941;53.254;6.600;2024-01-30T08:03:45;19.48;;;8.43;;
51836;SDS011;38941;53.254;6.600;2024-01-30T08:05:46;15.27;;;7.05;;
51836;SDS011;38941;53.254;6.600;2024-01-30T08:07:48;12.98;;;7.05;;
51836;SDS011;38941;53.254;6.600;2024-01-30T08:09:50;11.63;;;6.80;;
51836;SDS011;38941;53.254;6.600;2024-01-30T08:11:51;15.52;;;7.38;;
51836;SDS011;38941;53.254;6.600;2024-01-30T08:13:52;15.23;;;7.55;;
51836;SDS011;38941;53.254;6.600;2024-01-30T08:15:54;17.38;;;8.30;;
51836;SDS011;38941;53.254;6.600;2024-01-30T08:17:55;15.18;;;7.13;;
51836;SDS011;38941;53.254;6.600;2024-01-30T08:19:58;16.77;;;8.93;;
51836;SDS011;38941;53.254;6.600;2024-01-30T08:21:59;12.73;;;7.00;;
51836;SDS011;38941;53.254;6.600;2024-01-30T08:24:00;21.30;;;7.10;;
51836;SDS011;38941;53.254;6.600;2024-01-30T08:26:01;18.60;;;9.45;;
51836;SDS011;38941;53.254;6.600;2024-01-30T08:28:02;13.85;;;7.22;;
51836;SDS011;38941;53.254;6.600;2024-01-30T08:30:05;12.00;;;6.97;;
51836;SDS011;38941;53.254;6.600;2024-01-30T08:32:06;18.58;;;7.68;;
51836;SDS011;38941;53.254;6.600;2024-01-30T08:34:07;17.88;;;8.55;;
51836;SDS011;38941;53.254;6.600;2024-01-30T08:36:08;13.65;;;7.00;;
51836;SDS011;38941;53.254;6.600;2024-01-30T08:38:10;17.95;;;7.82;;
51836;SDS011;38941;53.254;6.600;2024-01-30T08:40:13;14.90;;;6.55;;
51836;SDS011;38941;53.254;6.600;2024-01-30T08:42:14;11.98;;;6.97;;
51836;SDS011;38941;53.254;6.600;2024-01-30T08:44:18;12.57;;;7.22;;
51836;SDS011;38941;53.254;6.600;2024-01-30T08:46:19;11.18;;;6.00;;
51836;SDS011;38941;53.254;6.600;2024-01-30T08:48:20;15.00;;;6.90;;
51836;SDS011;38941;53.254;6.600;2024-01-30T08:50:22;13.02;;;7.40;;
51836;SDS011;38941;53.254;6.600;2024-01-30T08:52:29;14.95;;;6.70;;
51836;SDS011;38941;53.254;6.600;2024-01-30T08:54:31;14.45;;;6.28;;
51836;SDS011;38941;53.254;6.600;2024-01-30T08:56:35;13.13;;;6.78;;
51836;SDS011;38941;53.254;6.600;2024-01-30T08:58:36;15.82;;;6.82;;
51836;SDS011;38941;53.254;6.600;2024-01-30T09:00:37;18.13;;;7.60;;
51836;SDS011;38941;53.254;6.600;2024-01-30T09:02:38;17.83;;;7.30;;
51836;SDS011;38941;53.254;6.600;2024-01-30T09:04:39;13.75;;;7.18;;
51836;SDS011;38941;53.254;6.600;2024-01-30T09:06:41;11.23;;;6.43;;
51836;SDS011;38941;53.254;6.600;2024-01-30T09:08:42;15.32;;;8.10;;
51836;SDS011;38941;53.254;6.600;2024-01-30T09:10:44;13.45;;;6.68;;
51836;SDS011;38941;53.254;6.600;2024-01-30T09:12:46;13.32;;;6.57;;
51836;SDS011;38941;53.254;6.600;2024-01-30T09:14:47;13.57;;;6.70;;
51836;SDS011;38941;53.254;6.600;2024-01-30T09:16:48;13.55;;;7.03;;
51836;SDS011;38941;53.254;6.600;2024-01-30T09:18:49;11.25;;;6.97;;
51836;SDS011;38941;53.254;6.600;2024-01-30T09:20:50;11.48;;;6.85;;
51836;SDS011;38941;53.254;6.600;2024-01-30T09:22:51;13.57;;;7.25;;
51836;SDS011;38941;53.254;6.600;2024-01-30T09:24:52;12.10;;;6.80;;
51836;SDS011;38941;53.254;6.600;2024-01-30T09:26:53;14.10;;;6.68;;
51836;SDS011;38941;53.254;6.600;2024-01-30T09:28:54;16.80;;;7.35;;
51836;SDS011;38941;53.254;6.600;2024-01-30T09:30:55;13.35;;;6.80;;
51836;SDS011;38941;53.254;6.600;2024-01-30T09:32:56;13.90;;;7.38;;
51836;SDS011;38941;53.254;6.600;2024-01-30T09:34:57;15.68;;;7.68;;
51836;SDS011;38941;53.254;6.600;2024-01-30T09:36:59;17.70;;;7.57;;
51836;SDS011;38941;53.254;6.600;2024-01-30T09:39:00;13.75;;;6.65;;
51836;SDS011;38941;53.254;6.600;2024-01-30T09:41:03;15.55;;;7.30;;
51836;SDS011;38941;53.254;6.600;2024-01-30T09:43:07;14.27;;;6.43;;
51836;SDS011;38941;53.254;6.600;2024-01-30T09:45:08;16.23;;;7.20;;
51836;SDS011;38941;53.254;6.600;2024-01-30T09:47:10;16.30;;;6.13;;
51836;SDS011;38941;53.254;6.600;2024-01-30T09:49:11;12.93;;;6.75;;
51836;SDS011;38941;53.254;6.600;2024-01-30T09:51:13;13.63;;;7.78;;
51836;SDS011;38941;53.254;6.600;2024-01-30T09:53:15;14.70;;;7.13;;
51836;SDS011;38941;53.254;6.600;2024-01-30T09:55:18;15.23;;;6.28;;
51836;SDS011;38941;53.254;6.600;2024-01-30T09:57:19;15.20;;;7.47;;
51836;SDS011;38941;53.254;6.600;2024-01-30T09:59:21;14.00;;;7.35;;
51836;SDS011;38941;53.254;6.600;2024-01-30T10:01:23;17.23;;;7.35;;
51836;SDS011;38941;53.254;6.600;2024-01-30T10:03:24;16.55;;;7.03;;
51836;SDS011;38941;53.254;6.600;2024-01-30T10:05:29;19.63;;;6.85;;
51836;SDS011;38941;53.254;6.600;2024-01-30T10:07:34;22.73;;;7.88;;
51836;SDS011;38941;53.254;6.600;2024-01-30T10:09:36;13.70;;;6.85;;
51836;SDS011;38941;53.254;6.600;2024-01-30T10:11:37;12.75;;;5.90;;
51836;SDS011;38941;53.254;6.600;2024-01-30T10:13:39;13.73;;;7.38;;
51836;SDS011;38941;53.254;6.600;2024-01-30T10:15:40;16.73;;;6.25;;
51836;SDS011;38941;53.254;6.600;2024-01-30T10:17:42;13.23;;;6.47;;
51836;SDS011;38941;53.254;6.600;2024-01-30T10:19:43;18.08;;;6.28;;
51836;SDS011;38941;53.254;6.600;2024-01-30T10:21:45;15.25;;;7.80;;
51836;SDS011;38941;53.254;6.600;2024-01-30T10:23:46;13.82;;;6.75;;
51836;SDS011;38941;53.254;6.600;2024-01-30T10:25:47;15.55;;;7.63;;
51836;SDS011;38941;53.254;6.600;2024-01-30T10:27:54;14.77;;;7.20;;
51836;SDS011;38941;53.254;6.600;2024-01-30T10:29:55;13.32;;;6.68;;
51836;SDS011;38941;53.254;6.600;2024-01-30T10:32:03;13.68;;;6.65;;
51836;SDS011;38941;53.254;6.600;2024-01-30T10:34:04;12.88;;;6.55;;
51836;SDS011;38941;53.254;6.600;2024-01-30T10:36:05;16.40;;;7.13;;
51836;SDS011;38941;53.254;6.600;2024-01-30T10:38:07;12.48;;;6.65;;
51836;SDS011;38941;53.254;6.600;2024-01-30T10:40:13;14.50;;;7.32;;
51836;SDS011;38941;53.254;6.600;2024-01-30T10:42:17;13.60;;;7.43;;
51836;SDS011;38941;53.254;6.600;2024-01-30T10:44:19;12.07;;;6.85;;
51836;SDS011;38941;53.254;6.600;2024-01-30T10:46:20;13.30;;;7.25;;
51836;SDS011;38941;53.254;6.600;2024-01-30T10:48:24;19.17;;;7.47;;
51836;SDS011;38941;53.254;6.600;2024-01-30T10:50:30;12.48;;;7.15;;
51836;SDS011;38941;53.254;6.600;2024-01-30T10:52:33;12.23;;;6.78;;
51836;SDS011;38941;53.254;6.600;2024-01-30T10:54:35;15.20;;;7.03;;
51836;SDS011;38941;53.254;6.600;2024-01-30T10:56:37;14.73;;;7.05;;
51836;SDS011;38941;53.254;6.600;2024-01-30T10:58:39;17.30;;;7.28;;
51836;SDS011;38941;53.254;6.600;2024-01-30T11:00:40;17.48;;;6.57;;
51836;SDS011;38941;53.254;6.600;2024-01-30T11:02:42;14.77;;;6.80;;
51836;SDS011;38941;53.254;6.600;2024-01-30T11:04:45;13.50;;;7.38;;
51836;SDS011;38941;53.254;6.600;2024-01-30T11:06:46;18.08;;;7.15;;
51836;SDS011;38941;53.254;6.600;2024-01-30T11:09:03;14.73;;;6.47;;
51836;SDS011;38941;53.254;6.600;2024-01-30T11:11:08;18.48;;;6.72;;
51836;SDS011;38941;53.254;6.600;2024-01-30T11:13:12;15.07;;;6.30;;
51836;SDS011;38941;53.254;6.600;2024-01-30T11:15:14;12.25;;;6.47;;
51836;SDS011;38941;53.254;6.600;2024-01-30T11:17:15;15.68;;;6.32;;
51836;SDS011;38941;53.254;6.600;2024-01-30T11:19:23;13.82;;;6.13;;
51836;SDS011;38941;53.254;6.600;2024-01-30T11:21:25;10.23;;;5.57;;
51836;SDS011;38941;53.254;6.600;2024-01-30T11:23:30;14.32;;;5.22;;
51836;SDS011;38941;53.254;6.600;2024-01-30T11:25:32;15.35;;;6.28;;
51836;SDS011;38941;53.254;6.600;2024-01-30T11:27:33;10.95;;;5.43;;
51836;SDS011;38941;53.254;6.600;2024-01-30T11:29:34;12.90;;;6.00;;
51836;SDS011;38941;53.254;6.600;2024-01-30T11:31:36;14.85;;;6.22;;
51836;SDS011;38941;53.254;6.600;2024-01-30T11:33:37;13.93;;;5.80;;
51836;SDS011;38941;53.254;6.600;2024-01-30T11:35:39;11.98;;;5.70;;
51836;SDS011;38941;53.254;6.600;2024-01-30T11:37:40;13.88;;;5.72;;
51836;SDS011;38941;53.254;6.600;2024-01-30T11:39:42;10.02;;;5.18;;
51836;SDS011;38941;53.254;6.600;2024-01-30T11:41:45;11.07;;;4.13;;
51836;SDS011;38941;53.254;6.600;2024-01-30T11:43:52;12.50;;;5.25;;
51836;SDS011;38941;53.254;6.600;2024-01-30T11:45:53;11.18;;;4.22;;
51836;SDS011;38941;53.254;6.600;2024-01-30T11:47:55;8.60;;;3.65;;
51836;SDS011;38941;53.254;6.600;2024-01-30T11:49:56;10.55;;;3.72;;
51836;SDS011;38941;53.254;6.600;2024-01-30T11:51:57;20.73;;;4.53;;
51836;SDS011;38941;53.254;6.600;2024-01-30T11:53:58;10.27;;;3.50;;
51836;SDS011;38941;53.254;6.600;2024-01-30T11:55:59;8.15;;;3.22;;
51836;SDS011;38941;53.254;6.600;2024-01-30T11:58:01;8.95;;;3.50;;
51836;SDS011;38941;53.254;6.600;2024-01-30T12:00:03;10.05;;;3.30;;